Rome, Georgia
Current Conditions -  °F | °C
As of 4:53 AM on Friday 24 Oct 2014 (Local Time) from KRMG Reporting Station
Clear Clear  
Wind Chill: 12°   Ceiling: Unl
Heat Index: 12°   Visibility: 10mi
Dew Point:   Wind: 8mph
Humidity: 74%   Direction: 360°N
Pressure: 30.05"   Gusts: NA
Location:  34.25°N, 85.17°W
Report Text: KRMG 240853Z AUTO 36007KT 10SM CLR 12/07 A3005 RMK AO2 SLP171 T01170072 50003
Loading
Personal Weather Stations






























Interactive Weather Map New forecast layout! Learn more

10-Day Weather Forecast

Advertisements
Track Severe Weather on mobile